createdAt,value
2022-10-26T00:01:07.824Z,99754.38
2022-10-26T00:03:37.088Z,99755.97
2022-10-26T00:06:10.644Z,99753.63
2022-10-26T00:08:39.186Z,99756.72
2022-10-26T00:11:07.930Z,99758.31
2022-10-26T00:13:37.006Z,99759.09
2022-10-26T00:16:11.596Z,99757.50
2022-10-26T00:18:39.833Z,99761.44
2022-10-26T00:21:09.774Z,99768.06
2022-10-26T00:23:38.105Z,99769.63
2022-10-26T00:26:07.809Z,99769.63
2022-10-26T00:28:36.149Z,99766.09
2022-10-26T00:31:06.218Z,99762.97
2022-10-26T00:33:36.037Z,99759.81
2022-10-26T00:36:04.097Z,99761.34
2022-10-26T00:38:32.202Z,99760.56
2022-10-26T00:41:00.362Z,99753.47
2022-10-26T00:43:39.893Z,99757.00
2022-10-26T00:46:14.960Z,99755.47
2022-10-26T00:48:51.725Z,99767.19
2022-10-26T00:51:26.738Z,99760.22
2022-10-26T00:53:56.414Z,99767.66
2022-10-26T00:56:25.244Z,99764.13
2022-10-26T00:58:53.754Z,99762.19
2022-10-26T01:01:21.975Z,99762.97
2022-10-26T01:03:51.670Z,99758.28
2022-10-26T01:06:20.324Z,99748.09
2022-10-26T01:08:49.979Z,99748.09
2022-10-26T01:11:18.156Z,99748.09
2022-10-26T01:13:49.707Z,99759.09
2022-10-26T01:16:32.010Z,99762.59
2022-10-26T01:19:18.513Z,99768.44
2022-10-26T01:21:55.955Z,99769.63
2022-10-26T01:24:58.462Z,99765.34
2022-10-26T01:27:32.587Z,99760.63
2022-10-26T01:30:21.552Z,99762.59
2022-10-26T01:33:04.882Z,99754.78
2022-10-26T01:35:40.707Z,99755.94
2022-10-26T01:38:13.191Z,99764.16
2022-10-26T01:40:46.587Z,99759.09
2022-10-26T01:43:17.146Z,99767.72
2022-10-26T01:45:48.970Z,99760.28
2022-10-26T01:48:20.233Z,99764.56
2022-10-26T01:50:53.297Z,99764.56
2022-10-26T01:53:22.472Z,99757.50
2022-10-26T01:55:52.562Z,99753.22
2022-10-26T01:59:04.764Z,99754.38
2022-10-26T02:02:08.144Z,99756.75
2022-10-26T02:04:51.088Z,99748.53
2022-10-26T02:07:25.108Z,99751.28
2022-10-26T02:10:01.926Z,99748.50
2022-10-26T02:12:38.330Z,99746.97
2022-10-26T02:15:11.489Z,99753.59
2022-10-26T02:17:48.175Z,99752.06
2022-10-26T02:20:23.547Z,99757.50
2022-10-26T02:22:54.144Z,99763.00
2022-10-26T02:25:27.406Z,99751.28
2022-10-26T02:27:59.366Z,99755.19
2022-10-26T02:30:28.158Z,99760.25
2022-10-26T02:32:59.031Z,99759.88
2022-10-26T02:35:32.679Z,99758.31
2022-10-26T02:38:03.262Z,99757.53
2022-10-26T02:40:32.823Z,99766.91
2022-10-26T02:43:05.748Z,99765.75
2022-10-26T02:45:40.308Z,99764.16
2022-10-26T02:48:08.770Z,99769.28
2022-10-26T02:50:50.602Z,99770.44
2022-10-26T02:53:25.563Z,99771.63
2022-10-26T02:55:53.934Z,99768.50
2022-10-26T02:58:27.331Z,99773.97
2022-10-26T03:00:55.986Z,99765.34
2022-10-26T03:03:24.285Z,99779.44
2022-10-26T03:05:53.895Z,99776.31
2022-10-26T03:08:22.110Z,99764.97
2022-10-26T03:10:50.188Z,99768.88
2022-10-26T03:13:19.300Z,99758.69
2022-10-26T03:15:47.513Z,99769.66
2022-10-26T03:18:15.569Z,99761.41
2022-10-26T03:20:45.957Z,99772.78
2022-10-26T03:23:15.409Z,99768.50
2022-10-26T03:25:43.473Z,99774.72
2022-10-26T03:28:11.497Z,99772.78
2022-10-26T03:30:39.749Z,99779.47
2022-10-26T03:33:07.896Z,99775.91
2022-10-26T03:35:36.200Z,99766.91
2022-10-26T03:38:04.513Z,99772.81
2022-10-26T03:40:36.442Z,99775.16
2022-10-26T03:43:05.346Z,99780.63
2022-10-26T03:45:33.868Z,99788.44
2022-10-26T03:48:01.987Z,99793.16
2022-10-26T03:50:30.161Z,99790.41
2022-10-26T03:52:58.758Z,99785.72
2022-10-26T03:55:26.877Z,99795.88
2022-10-26T03:57:56.348Z,99799.00
2022-10-26T04:00:24.485Z,99801.75
2022-10-26T04:02:56.931Z,99802.91
2022-10-26T04:05:27.346Z,99805.66
2022-10-26T04:07:56.232Z,99808.38
2022-10-26T04:10:24.674Z,99816.94
2022-10-26T04:12:53.309Z,99810.69
2022-10-26T04:15:23.687Z,99819.63
2022-10-26T04:17:57.953Z,99819.22
2022-10-26T04:20:27.608Z,99819.19
2022-10-26T04:22:59.889Z,99822.31
2022-10-26T04:25:30.222Z,99819.53
2022-10-26T04:28:01.036Z,99821.09
2022-10-26T04:30:31.118Z,99831.66
2022-10-26T04:32:59.358Z,99833.22
2022-10-26T04:35:27.968Z,99836.00
2022-10-26T04:37:59.306Z,99834.81
2022-10-26T04:40:27.710Z,99833.25
2022-10-26T04:42:55.886Z,99838.34
2022-10-26T04:45:28.293Z,99836.38
2022-10-26T04:48:07.954Z,99842.63
2022-10-26T04:50:36.460Z,99853.94
2022-10-26T04:53:06.126Z,99853.16
2022-10-26T04:55:34.793Z,99853.91
2022-10-26T04:58:03.255Z,99855.06
2022-10-26T05:00:32.943Z,99857.41
2022-10-26T05:03:01.576Z,99866.00
2022-10-26T05:05:33.775Z,99862.53
2022-10-26T05:08:02.076Z,99857.09
2022-10-26T05:10:30.206Z,99860.63
2022-10-26T05:13:00.441Z,99863.03
2022-10-26T05:15:28.847Z,99864.22
2022-10-26T05:17:58.389Z,99865.41
2022-10-26T05:20:30.346Z,99861.88
2022-10-26T05:23:02.237Z,99869.41
2022-10-26T05:25:32.148Z,99883.13
2022-10-26T05:28:00.781Z,99883.53
2022-10-26T05:30:29.839Z,99885.88
2022-10-26T05:32:59.092Z,99890.22
2022-10-26T05:35:28.199Z,99889.06
2022-10-26T05:37:56.551Z,99893.38
2022-10-26T05:40:27.807Z,99889.06
2022-10-26T05:43:01.438Z,99890.28
2022-10-26T05:45:29.958Z,99902.00
2022-10-26T05:48:01.755Z,99896.94
2022-10-26T05:50:31.974Z,99898.13
2022-10-26T05:53:00.035Z,99895.41
2022-10-26T05:55:30.492Z,99904.41
2022-10-26T05:58:00.183Z,99914.59
2022-10-26T06:00:30.526Z,99907.53
2022-10-26T06:03:11.014Z,99909.91
2022-10-26T06:05:52.568Z,99913.06
2022-10-26T06:08:21.439Z,99924.44
2022-10-26T06:10:51.662Z,99932.28
2022-10-26T06:13:20.309Z,99924.84
2022-10-26T06:16:03.120Z,99938.53
2022-10-26T06:18:40.977Z,99937.75
2022-10-26T06:21:26.762Z,99933.81
2022-10-26T06:24:00.537Z,99936.56
2022-10-26T06:26:41.947Z,99944.00
2022-10-26T06:29:20.081Z,99946.75
2022-10-26T06:31:49.134Z,99946.72
2022-10-26T06:34:27.569Z,99943.59
2022-10-26T06:36:57.965Z,99950.25
2022-10-26T06:39:29.560Z,99951.81
2022-10-26T06:42:00.351Z,99952.19
2022-10-26T06:44:29.092Z,99950.97
2022-10-26T06:47:06.131Z,99954.88
2022-10-26T06:49:37.670Z,99958.75
2022-10-26T06:52:14.851Z,99956.75
2022-10-26T06:54:50.000Z,99957.94
2022-10-26T06:57:21.594Z,99970.09
2022-10-26T06:59:53.469Z,99965.31
2022-10-26T07:02:22.184Z,99964.50
2022-10-26T07:04:50.310Z,99966.03
2022-10-26T07:07:21.207Z,99967.19
2022-10-26T07:09:50.207Z,99965.97
2022-10-26T07:12:19.934Z,99960.09
2022-10-26T07:14:48.090Z,99955.31
2022-10-26T07:17:17.149Z,99962.81
2022-10-26T07:19:45.790Z,99966.34
2022-10-26T07:22:13.908Z,99967.47
2022-10-26T07:24:42.021Z,99978.50
2022-10-26T07:27:10.103Z,99967.44
2022-10-26T07:29:39.789Z,99974.03
2022-10-26T07:32:07.973Z,99972.00
2022-10-26T07:34:36.067Z,99973.88
2022-10-26T07:37:05.055Z,99975.88
2022-10-26T07:39:33.284Z,99974.69
2022-10-26T07:42:01.343Z,99968.00
2022-10-26T07:44:29.587Z,99970.69
2022-10-26T07:46:59.491Z,99967.88
2022-10-26T07:49:28.016Z,99971.03
2022-10-26T07:51:57.098Z,99963.16
2022-10-26T07:54:26.141Z,99967.09
2022-10-26T07:56:54.367Z,99966.63
2022-10-26T07:59:22.568Z,99965.03
2022-10-26T08:01:50.882Z,99969.69
2022-10-26T08:04:20.972Z,99969.13
2022-10-26T08:06:49.723Z,99965.25
2022-10-26T08:09:18.427Z,99966.44
2022-10-26T08:11:46.709Z,99961.84
2022-10-26T08:14:15.270Z,99963.69
2022-10-26T08:16:43.457Z,99958.09
2022-10-26T08:19:12.423Z,99960.81
2022-10-26T08:21:41.927Z,99968.25
2022-10-26T08:24:10.328Z,99958.75
2022-10-26T08:26:38.435Z,99963.09
2022-10-26T08:29:06.518Z,99959.59
2022-10-26T08:31:35.232Z,99963.34
2022-10-26T08:34:04.505Z,99964.16
2022-10-26T08:36:32.717Z,99958.88
2022-10-26T08:39:02.547Z,99959.09
2022-10-26T08:41:37.988Z,99957.88
2022-10-26T08:44:16.476Z,99952.72
2022-10-26T08:46:49.541Z,99956.16
2022-10-26T08:49:26.192Z,99956.38
2022-10-26T08:51:59.305Z,99954.72
2022-10-26T08:54:39.282Z,99957.34
2022-10-26T08:57:17.927Z,99962.88
2022-10-26T08:59:52.415Z,99960.88
2022-10-26T09:02:21.697Z,99956.03
2022-10-26T09:04:49.810Z,99952.88
2022-10-26T09:07:35.916Z,99959.06
2022-10-26T09:10:16.794Z,99951.31
2022-10-26T09:12:53.736Z,99947.00
2022-10-26T09:15:30.102Z,99945.91
2022-10-26T09:18:04.806Z,99951.66
2022-10-26T09:20:57.437Z,99944.91
2022-10-26T09:23:55.497Z,99943.75
2022-10-26T09:26:33.517Z,99937.09
2022-10-26T09:29:06.407Z,99938.59
2022-10-26T09:31:44.670Z,99940.59
2022-10-26T09:34:21.380Z,99942.84
2022-10-26T09:36:55.661Z,99948.06
2022-10-26T09:39:31.456Z,99945.84
2022-10-26T09:42:09.004Z,99939.41
2022-10-26T09:44:40.811Z,99948.06
2022-10-26T09:47:19.244Z,99945.28
2022-10-26T09:49:50.807Z,99942.81
2022-10-26T09:52:19.068Z,99935.59
2022-10-26T09:54:47.059Z,99935.09
2022-10-26T09:57:19.670Z,99924.81
2022-10-26T09:59:50.076Z,99926.28
2022-10-26T10:02:40.352Z,99925.44
2022-10-26T10:05:49.840Z,99918.63
2022-10-26T10:08:23.675Z,99916.03
2022-10-26T10:11:00.742Z,99914.56
2022-10-26T10:13:36.317Z,99915.09
2022-10-26T10:16:09.397Z,99910.69
2022-10-26T10:18:39.258Z,99910.38
2022-10-26T10:21:10.160Z,99906.47
2022-10-26T10:23:47.809Z,99902.66
2022-10-26T10:26:15.853Z,99905.19
2022-10-26T10:28:57.106Z,99901.03
2022-10-26T10:31:31.097Z,99894.56
2022-10-26T10:34:00.370Z,99896.38
2022-10-26T10:36:31.753Z,99900.69
2022-10-26T10:39:00.735Z,99890.41
2022-10-26T10:41:32.490Z,99885.69
2022-10-26T10:44:09.128Z,99887.75
2022-10-26T10:46:38.872Z,99877.13
2022-10-26T10:49:18.249Z,99881.16
2022-10-26T10:51:46.450Z,99873.63
2022-10-26T10:54:26.326Z,99867.13
2022-10-26T10:56:56.997Z,99861.94
2022-10-26T10:59:51.503Z,99859.41
2022-10-26T11:02:52.194Z,99861.25
2022-10-26T11:05:55.712Z,99849.38
2022-10-26T11:08:30.739Z,99849.97
2022-10-26T11:11:04.153Z,99857.56
2022-10-26T11:13:38.001Z,99849.81
2022-10-26T11:16:14.304Z,99848.66
2022-10-26T11:18:47.118Z,99844.00
2022-10-26T11:21:23.910Z,99841.31
2022-10-26T11:23:55.832Z,99836.09
2022-10-26T11:26:28.632Z,99834.47
2022-10-26T11:29:00.986Z,99836.69
2022-10-26T11:31:39.772Z,99840.78
2022-10-26T11:34:18.698Z,99835.97
2022-10-26T11:36:58.119Z,99833.28
2022-10-26T11:39:38.964Z,99836.88
2022-10-26T11:42:20.204Z,99824.25
2022-10-26T11:44:54.934Z,99826.84
2022-10-26T11:47:30.656Z,99828.72
2022-10-26T11:50:08.073Z,99829.84
2022-10-26T11:52:41.873Z,99835.28
2022-10-26T11:55:12.286Z,99823.22
2022-10-26T11:57:42.095Z,99826.09
2022-10-26T12:00:18.376Z,99825.75
2022-10-26T12:02:52.286Z,99826.97
2022-10-26T12:05:26.695Z,99822.41
2022-10-26T12:07:59.056Z,99827.28
2022-10-26T12:10:30.635Z,99822.06
2022-10-26T12:13:12.602Z,99818.66
2022-10-26T12:16:02.477Z,99815.13
2022-10-26T12:18:57.253Z,99813.44
2022-10-26T12:21:29.232Z,99808.91
2022-10-26T12:23:59.888Z,99811.31
2022-10-26T12:26:52.381Z,99807.31
2022-10-26T12:29:37.105Z,99810.78
2022-10-26T12:32:26.994Z,99819.69
2022-10-26T12:35:02.956Z,99812.13
2022-10-26T12:37:36.826Z,99813.25
2022-10-26T12:40:41.121Z,99810.34
2022-10-26T12:43:38.819Z,99810.13
2022-10-26T12:46:43.605Z,99814.03
2022-10-26T12:49:59.024Z,99813.38
2022-10-26T12:52:53.998Z,99811.78
2022-10-26T12:55:47.345Z,99817.56
2022-10-26T12:58:47.251Z,99812.88
2022-10-26T13:01:32.935Z,99817.75
2022-10-26T13:04:18.348Z,99816.69
2022-10-26T13:07:01.625Z,99820.44
2022-10-26T13:09:34.233Z,99819.75
2022-10-26T13:12:04.861Z,99817.09
2022-10-26T13:14:37.297Z,99817.44
2022-10-26T13:17:07.145Z,99809.88
2022-10-26T13:19:42.503Z,99812.97
2022-10-26T13:22:17.296Z,99819.28
2022-10-26T13:24:53.455Z,99820.88
2022-10-26T13:27:44.364Z,99818.41
2022-10-26T13:30:23.072Z,99821.53
2022-10-26T13:32:54.886Z,99806.47
2022-10-26T13:35:25.874Z,99805.00
2022-10-26T13:37:56.245Z,99811.50
2022-10-26T13:40:28.806Z,99809.59
2022-10-26T13:42:59.784Z,99812.72
2022-10-26T13:45:30.057Z,99810.66
2022-10-26T13:48:06.371Z,99813.44
2022-10-26T13:50:39.260Z,99815.94
2022-10-26T13:53:14.512Z,99823.13
2022-10-26T13:55:49.938Z,99824.44
2022-10-26T13:58:25.909Z,99824.22
2022-10-26T14:01:05.953Z,99821.63
2022-10-26T14:03:34.190Z,99827.38
2022-10-26T14:06:05.668Z,99824.91
2022-10-26T14:08:33.929Z,99825.66
2022-10-26T14:11:04.457Z,99830.56
2022-10-26T14:13:39.049Z,99837.22
2022-10-26T14:16:14.375Z,99837.75
2022-10-26T14:18:46.105Z,99840.03
2022-10-26T14:21:17.779Z,99840.91
2022-10-26T14:23:52.409Z,99837.00
2022-10-26T14:26:24.470Z,99847.22
2022-10-26T14:28:56.182Z,99851.84
2022-10-26T14:31:29.185Z,99849.13
2022-10-26T14:33:59.800Z,99852.09
2022-10-26T14:36:32.293Z,99852.00
2022-10-26T14:39:04.284Z,99854.94
2022-10-26T14:41:37.141Z,99854.13
2022-10-26T14:44:05.750Z,99862.72
2022-10-26T14:46:37.450Z,99865.75
2022-10-26T14:49:06.133Z,99874.13
2022-10-26T14:51:37.053Z,99869.09
2022-10-26T14:54:05.739Z,99868.06
2022-10-26T14:56:43.428Z,99869.81
2022-10-26T14:59:14.277Z,99868.31
2022-10-26T15:01:54.469Z,99867.53
2022-10-26T15:04:33.818Z,99868.91
2022-10-26T15:07:18.222Z,99874.09
2022-10-26T15:09:48.230Z,99868.44
2022-10-26T15:12:23.845Z,99877.66
2022-10-26T15:14:53.299Z,99869.56
2022-10-26T15:17:27.698Z,99879.13
2022-10-26T15:19:57.955Z,99878.09
2022-10-26T15:22:31.995Z,99877.81
2022-10-26T15:25:03.969Z,99879.94
2022-10-26T15:27:35.765Z,99884.41
2022-10-26T15:30:20.503Z,99886.91
2022-10-26T15:32:52.785Z,99892.16
2022-10-26T15:35:28.623Z,99894.28
2022-10-26T15:38:02.248Z,99892.09
2022-10-26T15:40:32.514Z,99900.81
2022-10-26T15:43:03.349Z,99891.50
2022-10-26T15:45:35.079Z,99903.41
2022-10-26T15:48:20.570Z,99901.25
2022-10-26T15:50:48.626Z,99905.38
2022-10-26T15:53:21.442Z,99908.31
2022-10-26T15:55:51.263Z,99908.88
2022-10-26T15:58:20.789Z,99916.94
2022-10-26T16:00:49.117Z,99922.97
2022-10-26T16:03:20.187Z,99920.00
2022-10-26T16:05:48.764Z,99922.13
2022-10-26T16:08:18.778Z,99921.44
2022-10-26T16:10:48.503Z,99933.22
2022-10-26T16:13:16.999Z,99929.78
2022-10-26T16:15:46.891Z,99934.28
2022-10-26T16:18:15.739Z,99939.81
2022-10-26T16:20:48.347Z,99938.75
2022-10-26T16:23:18.002Z,99942.00
2022-10-26T16:25:47.849Z,99940.47
2022-10-26T16:28:17.766Z,99943.25
2022-10-26T16:30:47.255Z,99960.53
2022-10-26T16:33:15.520Z,99956.22
2022-10-26T16:35:43.628Z,99965.28
2022-10-26T16:38:11.734Z,99968.09
2022-10-26T16:40:42.621Z,99964.56
2022-10-26T16:43:10.738Z,99966.56
2022-10-26T16:45:41.767Z,99974.03
2022-10-26T16:48:15.328Z,99978.47
2022-10-26T16:50:43.398Z,99974.56
2022-10-26T16:53:11.413Z,99979.72
2022-10-26T16:55:39.525Z,99983.69
2022-10-26T16:58:07.660Z,99988.44
2022-10-26T17:00:36.685Z,99990.03
2022-10-26T17:03:05.089Z,99997.50
2022-10-26T17:05:34.540Z,100001.03
2022-10-26T17:08:02.659Z,99998.28
2022-10-26T17:10:30.708Z,100007.72
2022-10-26T17:13:00.001Z,100006.97
2022-10-26T17:15:29.064Z,100016.06
2022-10-26T17:20:26.309Z,100014.53
2022-10-26T17:22:58.245Z,100022.03
2022-10-26T17:25:26.365Z,100017.75
2022-10-26T17:27:54.406Z,100026.41
2022-10-26T17:30:23.423Z,100028.38
2022-10-26T17:32:52.094Z,100030.78
2022-10-26T17:35:20.502Z,100032.78
2022-10-26T17:37:48.958Z,100034.75
2022-10-26T17:40:18.771Z,100038.69
2022-10-26T17:42:46.933Z,100042.25
2022-10-26T17:45:15.045Z,100041.88
2022-10-26T17:47:43.044Z,100048.97
2022-10-26T17:50:11.659Z,100051.75
2022-10-26T17:52:39.813Z,100059.22
2022-10-26T17:55:08.347Z,100054.50
2022-10-26T17:57:37.952Z,100050.22
2022-10-26T18:00:06.864Z,100056.88
2022-10-26T18:02:38.104Z,100066.31
2022-10-26T18:05:07.806Z,100060.00
2022-10-26T18:07:36.070Z,100067.06
2022-10-26T18:10:13.870Z,100067.44
2022-10-26T18:12:54.174Z,100069.81
2022-10-26T18:15:24.228Z,100069.06
2022-10-26T18:17:56.862Z,100081.25
2022-10-26T18:20:27.895Z,100083.66
2022-10-26T18:22:56.748Z,100082.50
2022-10-26T18:25:25.016Z,100086.81
2022-10-26T18:27:54.983Z,100083.25
2022-10-26T18:30:23.162Z,100084.06
2022-10-26T18:32:52.142Z,100089.94
2022-10-26T18:35:20.774Z,100093.06
2022-10-26T18:37:49.261Z,100097.75
2022-10-26T18:40:17.595Z,100101.66
2022-10-26T18:42:46.056Z,100105.19
2022-10-26T18:45:15.871Z,100106.34
2022-10-26T18:47:43.903Z,100108.69
2022-10-26T18:50:12.005Z,100116.94
2022-10-26T18:52:40.106Z,100116.13
2022-10-26T18:55:09.564Z,100115.69
2022-10-26T18:57:37.678Z,100123.91
2022-10-26T19:00:08.702Z,100129.00
2022-10-26T19:02:38.404Z,100126.28
2022-10-26T19:05:07.682Z,100128.19
2022-10-26T19:07:37.912Z,100140.31
2022-10-26T19:10:06.886Z,100140.69
2022-10-26T19:12:34.940Z,100149.31
2022-10-26T19:15:03.074Z,100145.34
2022-10-26T19:17:31.360Z,100151.97
2022-10-26T19:20:01.012Z,100155.47
2022-10-26T19:22:29.190Z,100160.13
2022-10-26T19:24:57.255Z,100160.94
2022-10-26T19:27:26.055Z,100164.84
2022-10-26T19:29:54.247Z,100172.69
2022-10-26T19:32:22.885Z,100173.09
2022-10-26T19:34:50.951Z,100173.09
2022-10-26T19:37:21.924Z,100185.91
2022-10-26T19:39:51.748Z,100183.50
2022-10-26T19:42:20.086Z,100193.19
2022-10-26T19:44:48.214Z,100193.13
2022-10-26T19:47:16.459Z,100193.81
2022-10-26T19:49:44.617Z,100202.75
2022-10-26T19:52:12.766Z,100208.19
2022-10-26T19:54:42.332Z,100212.78
2022-10-26T19:57:10.361Z,100214.66
2022-10-26T19:59:38.531Z,100215.38
2022-10-26T20:02:06.601Z,100227.44
2022-10-26T20:04:34.647Z,100218.06
2022-10-26T20:07:03.197Z,100230.50
2022-10-26T20:09:32.591Z,100226.97
2022-10-26T20:12:02.645Z,100233.53
2022-10-26T20:14:30.858Z,100236.59
2022-10-26T20:16:58.903Z,100240.06
2022-10-26T20:19:27.140Z,100240.38
2022-10-26T20:21:55.265Z,100251.28
2022-10-26T20:24:23.317Z,100245.81
2022-10-26T20:26:51.497Z,100252.03
2022-10-26T20:29:21.755Z,100245.41
2022-10-26T20:31:53.762Z,100255.28
2022-10-26T20:34:23.991Z,100245.25
2022-10-26T20:36:52.107Z,100251.94
2022-10-26T20:39:20.899Z,100257.84
2022-10-26T20:41:49.456Z,100255.88
2022-10-26T20:44:24.504Z,100260.59
2022-10-26T20:46:53.470Z,100263.97
2022-10-26T20:49:22.160Z,100267.88
2022-10-26T20:52:19.947Z,100269.00
2022-10-26T20:54:48.168Z,100268.97
2022-10-26T20:57:20.571Z,100268.97
2022-10-26T20:59:54.105Z,100273.00
2022-10-26T21:02:22.648Z,100276.47
2022-10-26T21:04:51.787Z,100279.06
2022-10-26T21:07:19.848Z,100284.88
2022-10-26T21:09:47.985Z,100283.09
2022-10-26T21:12:16.095Z,100280.66
2022-10-26T21:14:44.160Z,100281.53
2022-10-26T21:17:13.680Z,100287.50
2022-10-26T21:19:42.475Z,100283.47
2022-10-26T21:22:10.540Z,100287.81
2022-10-26T21:24:38.585Z,100294.47
2022-10-26T21:27:06.673Z,100288.94
2022-10-26T21:29:34.706Z,100288.41
2022-10-26T21:32:02.799Z,100295.78
2022-10-26T21:34:32.300Z,100293.41
2022-10-26T21:37:00.349Z,100293.31
2022-10-26T21:39:28.604Z,100288.44
2022-10-26T21:41:56.662Z,100286.75
2022-10-26T21:44:40.067Z,100289.00
2022-10-26T21:47:09.586Z,100290.56
2022-10-26T21:49:39.335Z,100286.66
2022-10-26T21:52:08.404Z,100299.91
2022-10-26T21:54:36.477Z,100304.09
2022-10-26T21:57:04.533Z,100301.22
2022-10-26T21:59:32.578Z,100297.59
2022-10-26T22:02:00.828Z,100305.59
2022-10-26T22:04:28.892Z,100305.09
2022-10-26T22:06:58.323Z,100304.91
2022-10-26T22:09:26.472Z,100309.47
2022-10-26T22:11:54.538Z,100307.38
2022-10-26T22:14:22.824Z,100303.81
2022-10-26T22:16:50.895Z,100310.72
2022-10-26T22:19:18.963Z,100315.31
2022-10-26T22:21:46.977Z,100310.13
2022-10-26T22:24:16.802Z,100314.75
2022-10-26T22:26:44.877Z,100318.19
2022-10-26T22:29:12.932Z,100314.16
2022-10-26T22:31:41.702Z,100326.91
2022-10-26T22:34:15.466Z,100326.06
2022-10-26T22:36:43.599Z,100325.19
2022-10-26T22:39:11.678Z,100334.53
2022-10-26T22:41:41.189Z,100333.31
2022-10-26T22:44:09.486Z,100336.38
2022-10-26T22:46:37.517Z,100338.31
2022-10-26T22:49:05.591Z,100352.75
2022-10-26T22:51:35.842Z,100351.19
2022-10-26T22:54:05.775Z,100346.84
2022-10-26T22:56:36.407Z,100353.75
2022-10-26T22:59:08.817Z,100354.00
2022-10-26T23:01:41.807Z,100357.72
2022-10-26T23:04:12.898Z,100357.31
2022-10-26T23:06:41.580Z,100365.75
2022-10-26T23:09:09.875Z,100366.09
2022-10-26T23:11:37.940Z,100365.69
2022-10-26T23:14:07.469Z,100367.25
2022-10-26T23:16:35.484Z,100370.00
2022-10-26T23:19:03.548Z,100367.59
2022-10-26T23:21:31.681Z,100362.88
2022-10-26T23:23:59.727Z,100373.44
2022-10-26T23:26:27.833Z,100380.81
2022-10-26T23:28:56.406Z,100372.97
2022-10-26T23:31:27.866Z,100376.09
2022-10-26T23:33:57.380Z,100378.44
2022-10-26T23:36:25.848Z,100373.78
2022-10-26T23:38:53.875Z,100381.88
2022-10-26T23:41:22.172Z,100379.06
2022-10-26T23:43:50.315Z,100377.47
2022-10-26T23:46:18.415Z,100379.78
2022-10-26T23:48:47.931Z,100385.56
2022-10-26T23:51:18.641Z,100380.56
2022-10-26T23:53:48.886Z,100383.75
2022-10-26T23:56:16.949Z,100381.53
2022-10-26T23:58:45.028Z,100390.31
